GCXO/TFN METAR and TAF weather

Enter ICAO airport designator
Station Type Date Time Source
GCXO METAR 2022/06/27 09:14 UTC NOAA

GCXO 270914Z 32010KT 290V360 9000 3500NW BCFG FEW001 BKN007 16/15 Q1022 NOSIG


Station Type Date Time Source
GCXO Decoded METAR 2022/06/27 09:14 UTC NOAA

Tenerife / Los Rodeos, Spain (GCXO) 28-28N 016-19W 617M
Jun 27, 2022 - 05:14 AM EDT / 2022.06.27 0914 UTC
Wind: from the NW (320 degrees) at 12 MPH (10 KT) (direction variable):0
Visibility: 5 mile(s):0
Sky conditions: mostly cloudy
Weather: patches of fog
Temperature: 60 F (16 C)
Dew Point: 59 F (15 C)
Relative Humidity: 93%
Pressure (altimeter): 30.18 in. Hg (1022 hPa)
ob: GCXO 270914Z 32010KT 290V360 9000 3500NW BCFG FEW001 BKN007 16/15 Q1022 NOSIG
cycle: 9

Station Type Date Time Source
GCXO TAF 2022/06/27 09:27 UTC NOAA

TAF GCXO 270800Z 2709/2809 33013KT 9999 BKN015 TX20/2714Z TN14/2806Z PROB30
TEMPO 2715/2720 32015G25KT
TEMPO 2722/2809 BKN008 PROB30
TEMPO 2723/2806 3500 BCFG BKN003

Example: see airport list